Time;durP1;ratioP1;P1;durP2;ratioP2;P2;SDS_P1;SDS_P2;PMS_P1;PMS_P2;Temp;Humidity;BMP_temperature;BMP_pressure;BME280_temperature;BME280_humidity;BME280_pressure;Samples;Min_cycle;Max_cycle;Signal;HPM_P1;HPM_P2
2021/05/07 00:01:08;;;;;;;6.38;2.92;;;5.60;99.90;;;;;;3529372;40;20853;-61
2021/05/07 00:03:34;;;;;;;4.70;2.75;;;5.60;99.90;;;;;;3536957;40;20050;-59
2021/05/07 00:06:03;;;;;;;5.55;3.47;;;5.60;99.90;;;;;;3530625;40;20023;-59
2021/05/07 00:08:32;;;;;;;6.50;4.38;;;5.60;99.90;;;;;;3537591;40;20039;-60
2021/05/07 00:11:02;;;;;;;6.00;4.20;;;5.70;99.90;;;;;;3529448;40;20031;-59
2021/05/07 00:13:28;;;;;;;6.57;4.07;;;5.70;99.90;;;;;;3529460;40;20388;-59
2021/05/07 00:15:55;;;;;;;5.53;4.13;;;5.70;99.90;;;;;;3528069;40;20038;-59
2021/05/07 00:18:20;;;;;;;6.45;4.50;;;5.70;99.90;;;;;;3529240;40;20027;-59
2021/05/07 00:20:46;;;;;;;6.30;4.53;;;5.70;99.90;;;;;;3529127;40;20082;-59
2021/05/07 00:23:12;;;;;;;7.75;5.10;;;5.70;99.90;;;;;;3527590;40;20119;-59
2021/05/07 00:25:38;;;;;;;6.78;4.70;;;5.70;99.90;;;;;;3528287;40;20042;-59
2021/05/07 00:28:09;;;;;;;6.90;4.60;;;5.70;99.90;;;;;;3529268;40;20144;-59
2021/05/07 00:30:36;;;;;;;7.20;4.75;;;5.70;99.90;;;;;;3527503;40;20340;-59
2021/05/07 00:33:02;;;;;;;6.68;4.68;;;5.70;99.90;;;;;;3527769;40;20042;-59
2021/05/07 00:35:28;;;;;;;6.80;5.00;;;5.70;99.90;;;;;;3529223;40;20045;-59
2021/05/07 00:37:54;;;;;;;8.25;4.97;;;5.70;99.90;;;;;;3528696;40;20087;-59
2021/05/07 00:40:20;;;;;;;7.97;5.15;;;5.70;99.90;;;;;;3527744;40;20038;-59
2021/05/07 00:42:46;;;;;;;8.38;5.63;;;;;;;;;;3536341;40;20039;-59
2021/05/07 00:45:14;;;;;;;7.45;5.25;;;5.70;99.90;;;;;;3529258;40;20042;-59
2021/05/07 00:48:01;;;;;;;8.65;5.35;;;5.70;99.90;;;;;;3529540;40;20041;-59
2021/05/07 00:50:32;;;;;;;7.55;5.15;;;5.90;99.90;;;;;;3536014;40;20050;-59
2021/05/07 00:52:59;;;;;;;7.45;5.40;;;5.60;99.90;;;;;;3529138;40;20050;-62
2021/05/07 00:55:29;;;;;;;8.30;5.20;;;5.50;99.90;;;;;;3528628;40;20120;-59
2021/05/07 00:57:55;;;;;;;8.70;6.07;;;5.40;99.90;;;;;;3533954;40;20031;-59
2021/05/07 01:00:23;;;;;;;8.75;5.97;;;5.70;99.90;;;;;;3528983;40;20041;-59
2021/05/07 01:02:49;;;;;;;9.00;6.35;;;;;;;;;;3529394;40;20451;-59
2021/05/07 01:05:15;;;;;;;9.05;6.07;;;;;;;;;;3528897;40;20460;-59
2021/05/07 01:07:41;;;;;;;8.55;6.00;;;;;;;;;;3527917;40;20113;-59
2021/05/07 01:10:10;;;;;;;11.98;6.45;;;5.50;99.90;;;;;;3528855;40;20082;-59
2021/05/07 01:12:38;;;;;;;9.57;6.13;;;5.50;99.90;;;;;;3528982;40;20050;-60
2021/05/07 01:15:04;;;;;;;10.25;5.85;;;;;;;;;;3528370;40;20035;-60
2021/05/07 01:17:31;;;;;;;10.13;5.93;;;5.50;99.90;;;;;;3528676;40;20050;-59
2021/05/07 01:20:20;;;;;;;8.07;5.53;;;5.20;99.90;;;;;;3528588;40;20050;-60
2021/05/07 01:22:51;;;;;;;7.43;5.07;;;5.60;99.90;;;;;;3528815;40;20041;-60
2021/05/07 01:25:19;;;;;;;8.23;5.07;;;5.30;99.90;;;;;;3529429;40;20034;-59
2021/05/07 01:27:46;;;;;;;7.88;5.35;;;5.70;99.90;;;;;;3527973;40;20041;-59
2021/05/07 01:30:21;;;;;;;8.38;5.15;;;4.90;99.90;;;;;;3528212;40;20739;-59
2021/05/07 01:32:48;;;;;;;6.38;4.75;;;5.20;99.90;;;;;;3528440;40;20034;-59
2021/05/07 01:35:18;;;;;;;9.13;4.68;;;5.30;99.90;;;;;;3529123;40;20063;-59
2021/05/07 01:37:45;;;;;;;5.50;4.30;;;5.10;99.90;;;;;;3537741;40;20428;-59
2021/05/07 01:40:20;;;;;;;6.50;4.00;;;5.10;99.90;;;;;;3530898;40;20050;-59
2021/05/07 01:42:47;;;;;;;6.13;4.15;;;;;;;;;;3537846;40;20101;-59
2021/05/07 01:45:15;;;;;;;7.28;4.53;;;5.30;99.90;;;;;;3529284;40;20043;-59
2021/05/07 01:47:42;;;;;;;9.20;5.57;;;5.30;99.90;;;;;;3530364;40;20030;-59
2021/05/07 01:50:11;;;;;;;5.95;4.35;;;5.30;99.90;;;;;;3536351;40;20059;-59
2021/05/07 01:52:37;;;;;;;4.32;3.60;;;5.70;99.90;;;;;;3530049;40;20046;-59
2021/05/07 01:55:09;;;;;;;6.63;3.50;;;5.20;99.90;;;;;;3528319;40;20035;-59
2021/05/07 01:57:36;;;;;;;5.85;3.75;;;;;;;;;;3530483;40;20507;-59
2021/05/07 02:00:08;;;;;;;4.70;3.38;;;5.10;99.90;;;;;;3527623;40;20955;-60
2021/05/07 02:02:40;;;;;;;4.53;3.42;;;5.10;99.90;;;;;;3529613;40;20517;-60
2021/05/07 02:05:08;;;;;;;4.93;3.53;;;5.20;99.90;;;;;;3528792;40;20560;-59
2021/05/07 02:07:34;;;;;;;5.65;3.72;;;;;;;;;;3527973;40;20042;-59
2021/05/07 02:10:00;;;;;;;6.18;3.67;;;;;;;;;;3530370;40;20046;-60
2021/05/07 02:12:27;;;;;;;5.35;3.60;;;5.20;99.90;;;;;;3529332;40;20059;-60
2021/05/07 02:14:53;;;;;;;5.40;3.95;;;4.70;99.90;;;;;;3530908;40;20122;-60
2021/05/07 02:17:19;;;;;;;7.38;4.00;;;;;;;;;;3537568;40;20047;-60
2021/05/07 02:19:45;;;;;;;5.70;3.78;;;;;;;;;;3529187;40;20058;-59
2021/05/07 02:22:12;;;;;;;4.72;3.60;;;;;;;;;;3529617;40;20140;-59
2021/05/07 02:24:38;;;;;;;7.68;5.03;;;5.30;99.90;;;;;;3528717;40;20049;-59
2021/05/07 02:27:04;;;;;;;8.23;5.80;;;5.80;99.90;;;;;;3529349;40;20039;-60
2021/05/07 02:29:30;;;;;;;7.75;5.60;;;;;;;;;;3530084;40;20332;-60
2021/05/07 02:31:57;;;;;;;8.20;5.75;;;;;;;;;;3528901;40;20449;-60
2021/05/07 02:34:23;;;;;;;5.95;4.40;;;;;;;;;;3531184;40;20058;-59
2021/05/07 02:36:49;;;;;;;8.73;4.63;;;;;;;;;;3530671;40;20065;-59
2021/05/07 02:39:16;;;;;;;8.13;5.50;;;;;;;;;;3526030;40;20039;-59
2021/05/07 02:41:43;;;;;;;6.95;4.72;;;5.50;99.90;;;;;;3528409;40;20038;-59
2021/05/07 02:44:10;;;;;;;7.07;5.22;;;;;;;;;;3528427;40;20767;-59
2021/05/07 02:46:37;;;;;;;8.75;5.85;;;5.60;99.90;;;;;;3529656;40;20125;-59
2021/05/07 02:49:05;;;;;;;7.30;4.93;;;5.50;99.90;;;;;;3530032;40;20043;-60
2021/05/07 02:51:32;;;;;;;7.43;5.43;;;5.50;99.90;;;;;;3536808;40;20031;-59
2021/05/07 02:54:02;;;;;;;7.07;4.97;;;5.50;99.90;;;;;;3528542;40;20682;-60
2021/05/07 02:56:28;;;;;;;9.75;6.13;;;;;;;;;;3530017;40;20530;-60
2021/05/07 02:58:55;;;;;;;13.48;7.55;;;;;;;;;;3528132;40;20047;-60
2021/05/07 03:01:22;;;;;;;11.15;7.00;;;;;;;;;;3529475;40;20031;-59
2021/05/07 03:03:48;;;;;;;11.52;6.13;;;;;;;;;;3529727;40;20400;-59
2021/05/07 03:06:14;;;;;;;12.18;7.13;;;;;;;;;;3529724;40;20042;-59
2021/05/07 03:08:41;;;;;;;10.07;6.70;;;;;;;;;;3529303;40;20039;-59
2021/05/07 03:11:07;;;;;;;9.27;6.15;;;;;;;;;;3529342;40;20039;-59
2021/05/07 03:13:33;;;;;;;9.60;6.35;;;;;;;;;;3528515;40;20046;-59
2021/05/07 03:15:59;;;;;;;9.88;6.28;;;5.70;99.90;;;;;;3529361;40;20063;-59
2021/05/07 03:18:26;;;;;;;9.48;6.55;;;;;;;;;;3529684;40;20058;-60
2021/05/07 03:20:53;;;;;;;11.55;6.18;;;;;;;;;;3529295;40;20115;-59
2021/05/07 03:23:19;;;;;;;9.38;6.18;;;5.30;99.90;;;;;;3529622;40;20388;-60
2021/05/07 03:25:45;;;;;;;8.48;5.90;;;5.40;99.90;;;;;;3529833;40;20031;-59
2021/05/07 03:28:12;;;;;;;9.20;5.93;;;5.30;99.90;;;;;;3529611;40;20045;-60
2021/05/07 03:30:38;;;;;;;9.93;5.95;;;5.30;99.90;;;;;;3529425;40;20054;-60
2021/05/07 03:33:05;;;;;;;10.02;6.25;;;5.30;99.90;;;;;;3529762;40;20457;-60
2021/05/07 03:35:32;;;;;;;11.30;6.13;;;5.30;99.90;;;;;;3528663;40;20148;-60
2021/05/07 03:37:58;;;;;;;12.77;6.93;;;;;;;;;;3529061;40;20095;-59
2021/05/07 03:40:25;;;;;;;10.57;7.60;;;;;;;;;;3527645;40;20047;-59
2021/05/07 03:42:51;;;;;;;13.10;7.22;;;5.50;99.90;;;;;;3529302;40;20031;-59
2021/05/07 03:45:17;;;;;;;9.32;6.75;;;5.20;99.90;;;;;;3529580;40;20750;-60
2021/05/07 03:47:44;;;;;;;13.60;7.50;;;5.50;99.90;;;;;;3529546;40;20409;-60
2021/05/07 03:50:11;;;;;;;12.45;7.82;;;7.00;99.90;;;;;;3529412;40;20058;-60
2021/05/07 03:52:37;;;;;;;12.70;7.88;;;5.60;99.90;;;;;;3528599;40;20313;-60
2021/05/07 03:55:08;;;;;;;13.05;7.32;;;5.70;99.90;;;;;;3529411;40;20039;-59
2021/05/07 03:57:34;;;;;;;13.25;7.82;;;;;;;;;;3529531;40;20035;-59
2021/05/07 04:00:00;;;;;;;10.73;6.93;;;;;;;;;;3528576;40;20058;-59
2021/05/07 04:02:26;;;;;;;12.02;7.47;;;;;;;;;;3528894;40;20039;-59
2021/05/07 04:04:53;;;;;;;12.20;8.10;;;6.30;99.90;;;;;;3529464;40;20034;-59
2021/05/07 04:07:20;;;;;;;13.07;8.02;;;;;;;;;;3528950;40;20042;-59
2021/05/07 04:12:23;;;;;;;12.25;7.28;;;;;;;;;;3528679;40;20023;-59
2021/05/07 04:14:49;;;;;;;9.40;6.68;;;;;;;;;;3529053;40;20046;-59
2021/05/07 04:17:15;;;;;;;12.80;7.45;;;;;;;;;;3529085;40;20124;-59
2021/05/07 04:19:41;;;;;;;9.82;6.40;;;;;;;;;;3529025;40;20054;-59
2021/05/07 04:22:08;;;;;;;11.07;6.05;;;;;;;;;;3527655;40;20140;-59
2021/05/07 04:24:34;;;;;;;7.72;5.15;;;;;;;;;;3529434;40;20034;-59
2021/05/07 04:27:00;;;;;;;7.43;4.60;;;;;;;;;;3528984;40;20054;-59
2021/05/07 04:29:27;;;;;;;10.40;5.00;;;;;;;;;;3529044;40;20120;-59
2021/05/07 04:31:54;;;;;;;10.73;5.28;;;;;;;;;;3528434;40;20045;-59
2021/05/07 04:34:20;;;;;;;6.30;4.25;;;;;;;;;;3527885;40;20764;-59
2021/05/07 04:36:46;;;;;;;9.77;4.72;;;;;;;;;;3529433;40;20771;-59
2021/05/07 04:39:12;;;;;;;9.57;5.57;;;;;;;;;;3528932;40;20035;-59
2021/05/07 04:41:38;;;;;;;9.10;4.25;;;;;;;;;;3528776;40;20049;-67
2021/05/07 04:44:04;;;;;;;7.25;3.97;;;6.40;99.90;;;;;;3527710;40;20023;-67
2021/05/07 04:46:30;;;;;;;6.03;4.20;;;;;;;;;;3522232;40;20067;-67
2021/05/07 04:48:56;;;;;;;7.38;3.50;;;;;;;;;;3528731;40;20050;-67
2021/05/07 04:51:22;;;;;;;10.85;3.60;;;;;;;;;;3527371;40;20417;-67
2021/05/07 04:53:48;;;;;;;12.80;4.45;;;;;;;;;;3530749;40;20123;-66
2021/05/07 04:56:14;;;;;;;5.82;3.28;;;6.70;99.90;;;;;;3531201;40;20090;-67
2021/05/07 04:58:40;;;;;;;5.65;3.33;;;6.30;99.90;;;;;;3530456;40;20363;-67
2021/05/07 05:01:06;;;;;;;8.50;3.90;;;6.30;99.90;;;;;;3531364;40;20042;-67
2021/05/07 05:03:31;;;;;;;9.85;4.68;;;6.30;99.90;;;;;;3532031;40;20035;-67
2021/05/07 05:05:57;;;;;;;9.63;4.20;;;5.80;99.90;;;;;;3531495;40;20039;-67
2021/05/07 05:08:24;;;;;;;23.42;9.57;;;5.90;99.90;;;;;;3529789;40;20037;-67
2021/05/07 05:10:55;;;;;;;8.63;3.83;;;6.20;99.90;;;;;;3530959;40;20043;-67
2021/05/07 05:13:21;;;;;;;8.05;3.55;;;;;;;;;;3533964;40;20045;-67
2021/05/07 05:15:49;;;;;;;10.20;3.70;;;6.40;99.90;;;;;;3534294;40;20034;-67
2021/05/07 05:18:31;;;;;;;6.88;3.53;;;6.20;99.90;;;;;;3533668;40;20095;-67
2021/05/07 05:20:59;;;;;;;6.22;3.75;;;6.10;99.90;;;;;;3533215;40;20027;-67
2021/05/07 05:23:26;;;;;;;5.97;3.50;;;5.90;99.90;;;;;;3533732;40;20070;-67
2021/05/07 05:25:52;;;;;;;10.52;4.18;;;;;;;;;;3533813;40;20051;-65
2021/05/07 05:28:19;;;;;;;6.82;4.00;;;6.10;99.90;;;;;;3534036;40;20034;-66
2021/05/07 05:30:45;;;;;;;7.40;3.50;;;6.30;99.90;;;;;;3526705;40;20074;-66
2021/05/07 05:33:11;;;;;;;7.72;3.92;;;6.40;99.90;;;;;;3532927;40;20047;-66
2021/05/07 05:35:37;;;;;;;8.63;3.60;;;6.40;99.90;;;;;;3534116;40;20141;-67
2021/05/07 05:38:03;;;;;;;7.38;3.67;;;6.40;99.90;;;;;;3533795;40;20030;-66
2021/05/07 05:40:29;;;;;;;7.20;3.60;;;6.40;99.90;;;;;;3534296;40;20087;-66
2021/05/07 05:42:56;;;;;;;8.32;4.22;;;6.40;99.90;;;;;;3540713;40;20130;-66
2021/05/07 05:45:24;;;;;;;9.45;4.47;;;6.40;99.90;;;;;;3534237;40;20125;-66
2021/05/07 05:48:18;;;;;;;6.28;3.63;;;6.30;99.90;;;;;;3533732;40;20039;-66
2021/05/07 05:50:47;;;;;;;4.38;3.15;;;6.30;99.90;;;;;;3534134;40;20414;-66
2021/05/07 05:53:13;;;;;;;8.25;3.00;;;;;;;;;;3533277;40;20487;-66
2021/05/07 05:55:39;;;;;;;5.75;3.20;;;6.40;99.90;;;;;;3533702;40;20035;-66
2021/05/07 05:58:06;;;;;;;5.07;2.88;;;;;;;;;;3534293;40;20074;-66
2021/05/07 06:00:32;;;;;;;8.30;4.90;;;6.40;99.90;;;;;;3534052;40;20446;-66
2021/05/07 06:02:58;;;;;;;6.70;2.90;;;6.50;99.90;;;;;;3533290;40;20055;-66
2021/05/07 06:05:24;;;;;;;6.35;3.40;;;6.60;99.90;;;;;;3534009;40;20031;-66
2021/05/07 06:07:50;;;;;;;8.82;3.90;;;6.30;99.90;;;;;;3533686;40;20039;-70
2021/05/07 06:10:17;;;;;;;6.82;3.35;;;6.30;99.90;;;;;;3534082;40;20067;-66
2021/05/07 06:12:44;;;;;;;10.15;3.47;;;6.10;99.90;;;;;;3532521;40;20110;-66
2021/05/07 06:15:10;;;;;;;9.18;3.58;;;6.60;99.90;;;;;;3533659;40;20114;-66
2021/05/07 06:17:36;;;;;;;9.32;3.83;;;;;;;;;;3533160;40;20168;-66
2021/05/07 06:20:07;;;;;;;6.65;3.17;;;6.40;99.90;;;;;;3530290;40;20034;-66
2021/05/07 06:22:34;;;;;;;6.57;3.45;;;6.40;99.90;;;;;;3532952;40;20038;-67
2021/05/07 06:25:01;;;;;;;5.70;3.20;;;6.40;99.90;;;;;;3532189;40;20774;-66
2021/05/07 06:27:27;;;;;;;14.77;3.85;;;6.70;99.90;;;;;;3530909;40;20049;-66
2021/05/07 06:29:53;;;;;;;7.95;3.33;;;6.70;99.90;;;;;;3532560;40;20035;-66
2021/05/07 06:32:19;;;;;;;10.75;3.88;;;6.30;99.90;;;;;;3533343;40;20038;-66
2021/05/07 06:34:45;;;;;;;8.32;3.80;;;;;;;;;;3532923;40;20137;-67
2021/05/07 06:37:11;;;;;;;8.25;3.72;;;;;;;;;;3533250;40;20090;-67
2021/05/07 06:39:37;;;;;;;8.88;3.47;;;;;;;;;;3533857;40;20130;-67
2021/05/07 06:42:04;;;;;;;10.13;3.30;;;6.20;99.90;;;;;;3532704;40;20050;-67
2021/05/07 06:44:31;;;;;;;8.27;3.10;;;;;;;;;;3533014;40;20043;-67
2021/05/07 06:46:57;;;;;;;5.78;2.63;;;;;;;;;;3532827;40;20310;-67
2021/05/07 06:49:23;;;;;;;9.52;3.05;;;;;;;;;;3532894;40;20038;-67
2021/05/07 06:51:50;;;;;;;5.50;2.72;;;6.00;99.90;;;;;;3532479;40;20124;-67
2021/05/07 06:54:16;;;;;;;7.30;3.08;;;5.90;99.90;;;;;;3532605;40;20038;-67
2021/05/07 06:56:43;;;;;;;13.45;4.85;;;;;;;;;;3533272;40;20039;-67
2021/05/07 06:59:09;;;;;;;8.80;3.15;;;;;;;;;;3533515;40;20075;-67
2021/05/07 07:01:35;;;;;;;8.32;2.85;;;6.00;99.90;;;;;;3532785;40;20058;-67
2021/05/07 07:04:02;;;;;;;14.93;5.65;;;5.90;99.90;;;;;;3533211;40;20031;-67
2021/05/07 07:06:28;;;;;;;18.08;6.07;;;;;;;;;;3532784;40;20125;-68
2021/05/07 07:08:54;;;;;;;9.88;3.28;;;;;;;;;;3533191;40;20027;-66
2021/05/07 07:11:21;;;;;;;15.60;3.30;;;;;;;;;;3533235;40;20413;-67
2021/05/07 07:13:47;;;;;;;8.05;2.90;;;;;;;;;;3532684;40;20039;-66
2021/05/07 07:16:14;;;;;;;8.55;2.83;;;;;;;;;;3532803;40;20094;-67
2021/05/07 07:18:41;;;;;;;11.48;2.85;;;6.40;99.90;;;;;;3532832;40;20028;-66
2021/05/07 07:21:08;;;;;;;8.88;3.10;;;;;;;;;;3532592;40;20039;-67
2021/05/07 07:23:34;;;;;;;8.65;2.90;;;;;;;;;;3532322;40;20031;-66
2021/05/07 07:26:01;;;;;;;12.25;3.40;;;;;;;;;;3532622;40;20039;-69
2021/05/07 07:28:27;;;;;;;13.40;3.60;;;;;;;;;;3532518;40;20039;-69
2021/05/07 07:30:53;;;;;;;10.35;3.75;;;;;;;;;;3532548;40;20043;-69
2021/05/07 07:33:19;;;;;;;10.23;3.40;;;;;;;;;;3532507;40;20424;-69
2021/05/07 07:35:45;;;;;;;12.82;3.80;;;;;;;;;;3531806;40;20039;-69
2021/05/07 07:38:11;;;;;;;6.20;3.25;;;;;;;;;;3531751;40;20063;-69
2021/05/07 07:40:37;;;;;;;6.25;3.45;;;;;;;;;;3520177;40;20047;-69
2021/05/07 07:43:04;;;;;;;7.80;3.70;;;;;;;;;;3532426;40;20039;-69
2021/05/07 07:45:30;;;;;;;9.30;3.45;;;;;;;;;;3539540;40;20038;-70
2021/05/07 07:47:56;;;;;;;5.93;3.70;;;;;;;;;;3532525;40;20034;-70
2021/05/07 07:50:24;;;;;;;9.13;3.70;;;4.20;99.90;;;;;;3532130;40;20049;-70
2021/05/07 07:52:50;;;;;;;7.50;3.42;;;5.00;99.90;;;;;;3532040;40;20050;-69
2021/05/07 07:55:16;;;;;;;8.20;3.22;;;;;;;;;;3532203;40;20050;-69
2021/05/07 07:57:42;;;;;;;7.97;3.50;;;4.60;99.90;;;;;;3531912;40;20047;-68
2021/05/07 08:00:09;;;;;;;6.32;3.20;;;4.10;99.90;;;;;;3532204;40;20038;-69
2021/05/07 08:02:38;;;;;;;8.40;3.47;;;;;;;;;;3532081;40;20095;-62
2021/05/07 08:05:04;;;;;;;6.68;2.75;;;3.90;99.90;;;;;;3532367;40;20053;-62
2021/05/07 08:07:30;;;;;;;7.53;2.58;;;4.10;99.90;;;;;;3533253;40;20491;-62
2021/05/07 08:09:56;;;;;;;9.27;2.90;;;;;;;;;;3532828;40;20197;-62
2021/05/07 08:12:22;;;;;;;4.20;2.40;;;;;;;;;;3532041;40;20031;-62
2021/05/07 08:14:50;;;;;;;4.20;2.40;;;3.40;99.90;;;;;;3532158;40;20042;-61
2021/05/07 08:17:17;;;;;;;5.28;2.60;;;;;;;;;;3531223;40;20190;-61
2021/05/07 08:19:44;;;;;;;8.98;2.90;;;;;;;;;;3531726;40;20045;-61
2021/05/07 08:22:10;;;;;;;7.00;3.03;;;;;;;;;;3531919;40;20061;-61
2021/05/07 08:24:36;;;;;;;6.35;2.90;;;;;;;;;;3531790;40;20086;-61
2021/05/07 08:27:02;;;;;;;5.43;3.55;;;;;;;;;;3532218;40;20117;-67
2021/05/07 08:29:28;;;;;;;3.92;2.63;;;;;;;;;;3531975;40;20077;-69
2021/05/07 08:31:55;;;;;;;4.85;2.70;;;;;;;;;;3531573;40;20140;-68
2021/05/07 08:34:21;;;;;;;6.50;3.38;;;;;;;;;;3532201;40;20137;-68
2021/05/07 08:36:48;;;;;;;5.88;3.10;;;2.00;99.90;;;;;;3532364;40;20312;-69
2021/05/07 08:39:14;;;;;;;8.32;3.45;;;;;;;;;;3531722;40;20081;-67
2021/05/07 08:41:43;;;;;;;4.38;3.08;;;1.50;99.90;;;;;;3529790;40;20043;-67
2021/05/07 08:44:09;;;;;;;7.88;3.40;;;;;;;;;;3529774;40;20057;-66
2021/05/07 08:46:39;;;;;;;8.88;3.70;;;1.40;99.90;;;;;;3531230;40;20035;-66
2021/05/07 08:49:05;;;;;;;10.32;3.78;;;1.80;99.90;;;;;;3529864;40;20042;-66
2021/05/07 08:51:31;;;;;;;6.70;4.20;;;;;;;;;;3530983;40;20109;-67
2021/05/07 08:53:57;;;;;;;8.43;4.70;;;1.70;99.90;;;;;;3530704;40;20551;-67
2021/05/07 08:56:23;;;;;;;9.02;4.40;;;1.70;99.90;;;;;;3531685;40;20027;-67
2021/05/07 08:58:49;;;;;;;10.60;4.90;;;;;;;;;;3531971;40;20054;-67
2021/05/07 09:01:15;;;;;;;9.40;4.28;;;;;;;;;;3531913;40;20038;-67
2021/05/07 09:03:45;;;;;;;8.65;4.40;;;2.10;99.90;;;;;;3529985;40;20035;-67
2021/05/07 09:06:21;;;;;;;7.80;4.25;;;2.30;99.90;;;;;;3531674;40;20164;-67
2021/05/07 09:08:48;;;;;;;7.00;3.80;;;2.50;99.90;;;;;;3527671;40;20042;-66
2021/05/07 09:11:18;;;;;;;9.70;4.07;;;2.60;99.90;;;;;;3530838;40;20027;-66
2021/05/07 09:13:45;;;;;;;6.20;3.83;;;;;;;;;;3530963;40;20050;-66
2021/05/07 09:16:12;;;;;;;5.63;4.15;;;3.10;99.90;;;;;;3529929;40;20063;-68
2021/05/07 09:18:49;;;;;;;6.85;3.75;;;3.30;99.90;;;;;;3531008;40;20035;-68
2021/05/07 09:21:16;;;;;;;6.35;3.80;;;3.40;99.90;;;;;;3529261;40;20055;-68
2021/05/07 09:23:47;;;;;;;5.82;2.92;;;3.50;99.90;;;;;;3531554;40;20031;-68
2021/05/07 09:26:13;;;;;;;4.30;2.92;;;;;;;;;;3529695;40;20670;-68
2021/05/07 09:28:53;;;;;;;4.25;3.15;;;3.50;99.90;;;;;;3531358;40;20063;-68
2021/05/07 09:31:20;;;;;;;5.68;2.78;;;;;;;;;;3530052;40;20086;-68
2021/05/07 09:33:48;;;;;;;5.63;2.80;;;3.50;99.90;;;;;;3530269;40;20133;-68
2021/05/07 09:36:30;;;;;;;5.30;3.30;;;3.60;99.90;;;;;;3537490;40;20416;-68
2021/05/07 09:38:59;;;;;;;2.03;1.70;;;3.10;99.90;;;;;;3529058;40;20043;-68
2021/05/07 09:41:25;;;;;;;3.88;2.45;;;1.90;99.90;;;;;;3529652;40;20027;-68
2021/05/07 09:43:51;;;;;;;4.68;2.05;;;;;;;;;;3528935;40;20035;-69
2021/05/07 09:46:17;;;;;;;3.63;2.20;;;;;;;;;;3528831;40;20027;-68
2021/05/07 09:48:44;;;;;;;1.98;1.52;;;;;;;;;;3528945;40;20111;-69
2021/05/07 09:51:12;;;;;;;2.00;1.60;;;4.20;99.90;;;;;;3522382;40;20090;-68
2021/05/07 09:53:41;;;;;;;3.55;1.40;;;4.20;99.90;;;;;;3529899;40;20035;-69
2021/05/07 09:56:15;;;;;;;2.15;1.58;;;4.40;99.90;;;;;;3530190;40;20035;-68
2021/05/07 09:58:41;;;;;;;4.35;2.05;;;;;;;;;;3531615;40;20090;-68
2021/05/07 10:01:07;;;;;;;3.75;1.60;;;;;;;;;;3532919;40;20510;-68
2021/05/07 10:03:34;;;;;;;2.38;1.60;;;;;;;;;;3532951;40;20112;-68
2021/05/07 10:06:01;;;;;;;1.73;1.27;;;5.90;99.90;;;;;;3524245;40;20436;-69
2021/05/07 10:08:28;;;;;;;3.67;1.33;;;;;;;;;;3529768;40;20046;-69
2021/05/07 10:10:59;;;;;;;2.20;1.35;;;6.90;99.90;;;;;;3530114;40;20432;-69
2021/05/07 10:13:31;;;;;;;2.88;1.70;;;7.30;99.90;;;;;;3532072;40;20035;-69
2021/05/07 10:16:05;;;;;;;2.83;1.67;;;7.50;99.90;;;;;;3538957;40;20176;-69
2021/05/07 10:18:33;;;;;;;3.15;1.88;;;7.90;99.90;;;;;;3530075;40;20042;-69
2021/05/07 10:21:01;;;;;;;3.38;1.83;;;7.20;99.90;;;;;;3538642;40;20071;-69
2021/05/07 10:23:28;;;;;;;3.53;2.30;;;;;;;;;;3531510;40;20062;-69
2021/05/07 10:25:56;;;;;;;4.80;2.47;;;7.70;99.90;;;;;;3531180;40;20035;-69
2021/05/07 10:28:22;;;;;;;4.78;2.50;;;8.00;99.90;;;;;;3530047;40;20538;-69
2021/05/07 10:30:49;;;;;;;11.50;4.80;;;;;;;;;;3531060;40;20062;-69
2021/05/07 10:33:19;;;;;;;6.57;3.33;;;8.50;99.90;;;;;;3531423;40;20417;-69
2021/05/07 10:35:54;;;;;;;6.28;2.63;;;8.50;99.90;;;;;;3531606;40;20070;-70
2021/05/07 10:38:20;;;;;;;2.05;1.80;;;8.50;99.90;;;;;;3530934;40;20109;-70
2021/05/07 10:40:50;;;;;;;3.85;1.90;;;8.60;99.90;;;;;;3530158;40;20050;-69
2021/05/07 10:43:18;;;;;;;4.95;2.42;;;8.90;99.90;;;;;;3530967;40;20094;-69
2021/05/07 10:46:01;;;;;;;4.63;1.90;;;9.00;99.90;;;;;;3532449;40;20049;-69
2021/05/07 10:48:27;;;;;;;3.55;2.00;;;;;;;;;;3531984;40;20050;-69
2021/05/07 10:51:02;;;;;;;5.07;2.10;;;9.20;99.90;;;;;;3532033;40;20039;-69
2021/05/07 10:53:37;;;;;;;4.47;1.67;;;9.00;99.90;;;;;;3531371;40;20081;-69
2021/05/07 10:56:20;;;;;;;3.92;2.10;;;9.30;99.90;;;;;;3538955;40;20042;-69
2021/05/07 10:58:48;;;;;;;7.70;2.80;;;9.70;99.90;;;;;;3532142;40;20042;-62
2021/05/07 11:01:34;;;;;;;3.30;2.08;;;9.80;99.90;;;;;;3531542;40;20054;-62
2021/05/07 11:04:11;;;;;;;8.75;2.53;;;10.30;99.90;;;;;;3530921;40;20050;-63
2021/05/07 11:06:42;;;;;;;7.50;3.10;;;10.70;99.90;;;;;;3532506;40;20026;-63
2021/05/07 11:09:21;;;;;;;4.25;2.13;;;10.50;99.90;;;;;;3538796;40;20041;-62
2021/05/07 11:11:52;;;;;;;4.53;2.15;;;11.30;99.90;;;;;;3531000;40;20042;-62
2021/05/07 11:14:23;;;;;;;4.95;1.90;;;11.60;99.90;;;;;;3531341;40;20031;-63
2021/05/07 11:16:50;;;;;;;6.88;2.20;;;11.80;99.90;;;;;;3531397;40;20051;-62
2021/05/07 11:19:27;;;;;;;6.22;2.45;;;11.40;99.90;;;;;;3532880;40;20042;-62
2021/05/07 11:21:57;;;;;;;4.80;2.08;;;10.80;99.90;;;;;;3531334;40;20503;-62
2021/05/07 11:24:29;;;;;;;6.07;2.30;;;10.50;99.90;;;;;;3532504;40;20715;-62
2021/05/07 11:26:56;;;;;;;6.85;2.72;;;10.30;99.90;;;;;;3539451;40;20043;-69
2021/05/07 11:29:27;;;;;;;8.02;3.40;;;9.80;99.90;;;;;;3532542;40;20055;-69
2021/05/07 11:31:53;;;;;;;9.98;4.28;;;9.30;99.90;;;;;;3539218;40;20532;-68
2021/05/07 11:34:27;;;;;;;11.23;5.07;;;8.70;99.90;;;;;;3533261;40;20039;-69
2021/05/07 11:36:57;;;;;;;7.00;4.90;;;8.30;99.90;;;;;;3530822;40;20495;-68
2021/05/07 11:39:23;;;;;;;8.73;5.15;;;8.40;99.90;;;;;;3530871;40;20243;-69
2021/05/07 11:41:49;;;;;;;8.68;5.75;;;8.60;99.90;;;;;;3533233;40;20094;-69
2021/05/07 11:44:15;;;;;;;7.68;5.22;;;9.00;99.90;;;;;;3532737;40;20042;-68
2021/05/07 11:46:40;;;;;;;8.38;5.55;;;9.50;99.90;;;;;;3532758;40;20539;-68
2021/05/07 11:49:06;;;;;;;6.13;4.30;;;10.10;99.90;;;;;;3533078;40;20047;-69
2021/05/07 11:51:34;;;;;;;8.48;4.55;;;10.20;99.90;;;;;;3532415;40;20448;-68
2021/05/07 11:54:00;;;;;;;7.43;4.35;;;10.60;99.90;;;;;;3539677;40;20023;-69
2021/05/07 11:56:26;;;;;;;5.32;3.75;;;11.30;99.90;;;;;;3522747;40;20053;-69
2021/05/07 11:58:53;;;;;;;8.10;3.97;;;12.40;99.90;;;;;;3532756;40;20062;-61
2021/05/07 12:01:20;;;;;;;5.85;3.60;;;12.80;99.90;;;;;;3530598;40;20696;-60
2021/05/07 12:03:47;;;;;;;7.47;4.60;;;12.40;99.90;;;;;;3532471;40;20043;-60
2021/05/07 12:06:29;;;;;;;9.00;5.65;;;11.80;99.90;;;;;;3532940;40;20081;-59
2021/05/07 12:09:09;;;;;;;8.95;5.05;;;11.00;99.90;;;;;;3532421;40;20519;-59
2021/05/07 12:11:35;;;;;;;8.45;4.63;;;10.30;99.90;;;;;;3531797;40;20042;-59
2021/05/07 12:14:34;;;;;;;7.32;4.40;;;10.10;99.90;;;;;;3532594;40;20805;-59
2021/05/07 12:17:00;;;;;;;4.93;3.00;;;9.60;99.90;;;;;;3532842;40;20053;-59
2021/05/07 12:19:26;;;;;;;6.00;2.65;;;9.20;99.90;;;;;;3533425;40;20507;-59
2021/05/07 12:21:51;;;;;;;3.78;2.30;;;8.60;99.90;;;;;;3532407;40;20408;-59
2021/05/07 12:24:28;;;;;;;4.38;2.60;;;8.40;99.90;;;;;;3532934;40;20045;-60
2021/05/07 12:26:54;;;;;;;3.75;1.92;;;8.40;99.90;;;;;;3532140;40;20027;-59
2021/05/07 12:29:20;;;;;;;8.68;2.47;;;8.30;99.90;;;;;;3530917;40;20052;-59
2021/05/07 12:31:45;;;;;;;3.45;1.80;;;8.50;99.90;;;;;;3532254;40;20043;-59
2021/05/07 12:34:18;;;;;;;2.30;1.80;;;9.10;99.90;;;;;;3532252;40;20042;-59
2021/05/07 12:37:03;;;;;;;5.18;1.80;;;9.60;99.90;;;;;;3532341;40;20049;-59
2021/05/07 12:39:32;;;;;;;2.85;1.88;;;9.80;99.90;;;;;;3530913;40;20050;-59
2021/05/07 12:41:59;;;;;;;3.03;1.80;;;10.10;99.90;;;;;;3531846;40;20035;-59
2021/05/07 12:44:26;;;;;;;2.83;1.90;;;10.70;99.90;;;;;;3531359;40;20043;-60
2021/05/07 12:46:51;;;;;;;4.28;1.77;;;10.50;99.90;;;;;;3531809;40;20102;-59
2021/05/07 12:49:18;;;;;;;4.20;1.88;;;10.60;99.90;;;;;;3531785;40;20058;-59
2021/05/07 12:51:44;;;;;;;7.28;3.90;;;10.80;99.90;;;;;;3531710;40;20038;-60
2021/05/07 12:54:10;;;;;;;2.50;1.80;;;11.20;99.90;;;;;;3530388;40;20039;-59
2021/05/07 12:56:40;;;;;;;3.20;1.85;;;12.40;99.90;;;;;;3531217;40;20054;-59
2021/05/07 12:59:06;;;;;;;2.80;1.90;;;13.20;99.90;;;;;;3530328;40;20035;-60
2021/05/07 13:01:32;;;;;;;5.70;3.33;;;13.80;99.90;;;;;;3531325;40;20513;-59
2021/05/07 13:03:58;;;;;;;6.45;3.15;;;15.00;99.10;;;;;;3531521;40;20066;-60
2021/05/07 13:06:24;;;;;;;3.63;3.10;;;14.90;95.60;;;;;;3531256;40;20058;-59
2021/05/07 13:08:50;;;;;;;4.72;3.13;;;;;;;;;;3532013;40;20071;-59
2021/05/07 13:11:16;;;;;;;4.05;3.40;;;13.20;99.70;;;;;;3532009;40;20035;-60
2021/05/07 13:13:42;;;;;;;6.60;3.85;;;13.10;99.90;;;;;;3532022;40;20038;-59
2021/05/07 13:16:11;;;;;;;4.20;3.13;;;13.70;99.90;;;;;;3531994;40;20405;-60
2021/05/07 13:18:37;;;;;;;4.72;3.42;;;13.40;97.60;;;;;;3532031;40;20566;-59
2021/05/07 13:21:03;;;;;;;4.78;2.72;;;14.00;98.70;;;;;;3532069;40;20102;-61
2021/05/07 13:23:29;;;;;;;6.80;4.68;;;15.40;93.10;;;;;;3531781;40;20031;-59
2021/05/07 13:25:55;;;;;;;4.88;4.00;;;16.30;89.50;;;;;;3539070;40;20075;-59
2021/05/07 13:28:21;;;;;;;3.28;2.17;;;16.00;90.60;;;;;;3532815;40;20031;-59
2021/05/07 13:30:47;;;;;;;3.60;3.15;;;16.50;78.00;;;;;;3532063;40;20398;-60
2021/05/07 13:33:13;;;;;;;14.65;11.40;;;16.50;78.50;;;;;;3532136;40;20058;-59